sensor_id;sensor_type;location;lat;lon;timestamp;P1;durP1;ratioP1;P2;durP2;ratioP2
27293;SDS011;14785;52.556;13.430;2023-12-20T00:00:53;31.03;;;28.53;;
27293;SDS011;14785;52.556;13.430;2023-12-20T00:03:20;34.13;;;31.48;;
27293;SDS011;14785;52.556;13.430;2023-12-20T00:05:46;29.47;;;26.97;;
27293;SDS011;14785;52.556;13.430;2023-12-20T00:08:12;40.10;;;36.83;;
27293;SDS011;14785;52.556;13.430;2023-12-20T00:10:37;40.40;;;37.03;;
27293;SDS011;14785;52.556;13.430;2023-12-20T00:13:03;30.97;;;28.37;;
27293;SDS011;14785;52.556;13.430;2023-12-20T00:15:28;31.90;;;29.07;;
27293;SDS011;14785;52.556;13.430;2023-12-20T00:17:54;30.40;;;27.93;;
27293;SDS011;14785;52.556;13.430;2023-12-20T00:20:19;31.30;;;28.70;;
27293;SDS011;14785;52.556;13.430;2023-12-20T00:22:44;32.60;;;29.90;;
27293;SDS011;14785;52.556;13.430;2023-12-20T00:25:10;36.93;;;34.00;;
27293;SDS011;14785;52.556;13.430;2023-12-20T00:27:35;27.50;;;25.00;;
27293;SDS011;14785;52.556;13.430;2023-12-20T00:30:01;28.47;;;26.10;;
27293;SDS011;14785;52.556;13.430;2023-12-20T00:32:26;28.50;;;26.10;;
27293;SDS011;14785;52.556;13.430;2023-12-20T00:34:51;35.77;;;32.87;;
27293;SDS011;14785;52.556;13.430;2023-12-20T00:37:17;30.70;;;28.20;;
27293;SDS011;14785;52.556;13.430;2023-12-20T00:39:42;32.97;;;30.20;;
27293;SDS011;14785;52.556;13.430;2023-12-20T00:42:07;32.53;;;29.73;;
27293;SDS011;14785;52.556;13.430;2023-12-20T00:44:33;32.77;;;29.53;;
27293;SDS011;14785;52.556;13.430;2023-12-20T00:46:58;30.63;;;27.77;;
27293;SDS011;14785;52.556;13.430;2023-12-20T00:49:23;28.80;;;26.23;;
27293;SDS011;14785;52.556;13.430;2023-12-20T00:51:49;29.50;;;26.87;;
27293;SDS011;14785;52.556;13.430;2023-12-20T00:54:15;26.23;;;23.83;;
27293;SDS011;14785;52.556;13.430;2023-12-20T00:56:41;29.15;;;26.45;;
27293;SDS011;14785;52.556;13.430;2023-12-20T00:59:06;30.77;;;28.00;;
27293;SDS011;14785;52.556;13.430;2023-12-20T01:01:32;30.30;;;27.40;;
27293;SDS011;14785;52.556;13.430;2023-12-20T01:03:58;31.88;;;28.77;;
27293;SDS011;14785;52.556;13.430;2023-12-20T01:06:24;33.50;;;30.50;;
27293;SDS011;14785;52.556;13.430;2023-12-20T01:08:50;32.80;;;29.80;;
27293;SDS011;14785;52.556;13.430;2023-12-20T01:11:15;29.97;;;27.10;;
27293;SDS011;14785;52.556;13.430;2023-12-20T01:13:41;31.70;;;28.67;;
27293;SDS011;14785;52.556;13.430;2023-12-20T01:16:06;32.97;;;29.80;;
27293;SDS011;14785;52.556;13.430;2023-12-20T01:18:35;34.60;;;31.02;;
27293;SDS011;14785;52.556;13.430;2023-12-20T01:21:01;39.87;;;36.00;;
27293;SDS011;14785;52.556;13.430;2023-12-20T01:23:28;42.78;;;38.83;;
27293;SDS011;14785;52.556;13.430;2023-12-20T01:25:53;42.80;;;39.00;;
27293;SDS011;14785;52.556;13.430;2023-12-20T01:28:19;43.10;;;39.50;;
27293;SDS011;14785;52.556;13.430;2023-12-20T01:30:44;43.33;;;39.23;;
27293;SDS011;14785;52.556;13.430;2023-12-20T01:33:10;50.87;;;46.43;;
27293;SDS011;14785;52.556;13.430;2023-12-20T01:35:35;33.20;;;29.60;;
27293;SDS011;14785;52.556;13.430;2023-12-20T01:38:00;33.63;;;30.27;;
27293;SDS011;14785;52.556;13.430;2023-12-20T01:40:26;31.03;;;27.77;;
27293;SDS011;14785;52.556;13.430;2023-12-20T01:43:01;34.47;;;31.27;;
27293;SDS011;14785;52.556;13.430;2023-12-20T01:45:27;43.05;;;39.50;;
27293;SDS011;14785;52.556;13.430;2023-12-20T01:47:53;45.83;;;42.00;;
27293;SDS011;14785;52.556;13.430;2023-12-20T01:50:20;38.83;;;35.85;;
27293;SDS011;14785;52.556;13.430;2023-12-20T01:52:46;47.28;;;43.90;;
27293;SDS011;14785;52.556;13.430;2023-12-20T01:55:12;44.05;;;40.83;;
27293;SDS011;14785;52.556;13.430;2023-12-20T01:57:43;27.67;;;25.27;;
27293;SDS011;14785;52.556;13.430;2023-12-20T02:00:09;28.40;;;25.88;;
27293;SDS011;14785;52.556;13.430;2023-12-20T02:02:37;31.52;;;29.00;;
27293;SDS011;14785;52.556;13.430;2023-12-20T02:05:07;39.22;;;36.40;;
27293;SDS011;14785;52.556;13.430;2023-12-20T02:07:34;43.63;;;40.60;;
27293;SDS011;14785;52.556;13.430;2023-12-20T02:10:00;27.33;;;25.23;;
27293;SDS011;14785;52.556;13.430;2023-12-20T02:12:26;20.58;;;18.88;;
27293;SDS011;14785;52.556;13.430;2023-12-20T02:14:51;22.60;;;20.73;;
27293;SDS011;14785;52.556;13.430;2023-12-20T02:17:16;22.43;;;20.77;;
27293;SDS011;14785;52.556;13.430;2023-12-20T02:19:43;25.90;;;23.92;;
27293;SDS011;14785;52.556;13.430;2023-12-20T02:22:11;46.55;;;43.33;;
27293;SDS011;14785;52.556;13.430;2023-12-20T02:24:37;28.15;;;26.02;;
27293;SDS011;14785;52.556;13.430;2023-12-20T02:27:02;26.00;;;24.00;;
27293;SDS011;14785;52.556;13.430;2023-12-20T02:29:30;24.50;;;22.48;;
27293;SDS011;14785;52.556;13.430;2023-12-20T02:31:56;22.93;;;21.17;;
27293;SDS011;14785;52.556;13.430;2023-12-20T02:34:21;26.23;;;24.53;;
27293;SDS011;14785;52.556;13.430;2023-12-20T02:36:46;31.80;;;29.83;;
27293;SDS011;14785;52.556;13.430;2023-12-20T02:39:12;33.73;;;31.47;;
27293;SDS011;14785;52.556;13.430;2023-12-20T02:41:38;34.03;;;31.85;;
27293;SDS011;14785;52.556;13.430;2023-12-20T02:44:03;30.30;;;28.20;;
27293;SDS011;14785;52.556;13.430;2023-12-20T02:46:29;25.70;;;23.80;;
27293;SDS011;14785;52.556;13.430;2023-12-20T02:48:54;16.33;;;14.90;;
27293;SDS011;14785;52.556;13.430;2023-12-20T02:51:20;19.43;;;17.60;;
27293;SDS011;14785;52.556;13.430;2023-12-20T02:53:45;30.17;;;27.93;;
27293;SDS011;14785;52.556;13.430;2023-12-20T02:56:11;28.50;;;26.40;;
27293;SDS011;14785;52.556;13.430;2023-12-20T02:58:36;28.70;;;26.13;;
27293;SDS011;14785;52.556;13.430;2023-12-20T03:01:01;49.30;;;46.03;;
27293;SDS011;14785;52.556;13.430;2023-12-20T03:03:27;53.00;;;49.30;;
27293;SDS011;14785;52.556;13.430;2023-12-20T03:05:52;47.37;;;44.13;;
27293;SDS011;14785;52.556;13.430;2023-12-20T03:08:18;33.53;;;31.07;;
27293;SDS011;14785;52.556;13.430;2023-12-20T03:10:43;32.63;;;29.57;;
27293;SDS011;14785;52.556;13.430;2023-12-20T03:13:09;25.50;;;23.50;;
27293;SDS011;14785;52.556;13.430;2023-12-20T03:15:34;23.63;;;21.70;;
27293;SDS011;14785;52.556;13.430;2023-12-20T03:17:59;27.63;;;25.70;;
27293;SDS011;14785;52.556;13.430;2023-12-20T03:20:25;29.87;;;27.53;;
27293;SDS011;14785;52.556;13.430;2023-12-20T03:22:53;23.02;;;20.75;;
27293;SDS011;14785;52.556;13.430;2023-12-20T03:25:18;17.63;;;15.97;;
27293;SDS011;14785;52.556;13.430;2023-12-20T03:27:44;21.00;;;18.90;;
27293;SDS011;14785;52.556;13.430;2023-12-20T03:30:09;23.63;;;21.47;;
27293;SDS011;14785;52.556;13.430;2023-12-20T03:32:36;30.63;;;28.37;;
27293;SDS011;14785;52.556;13.430;2023-12-20T03:35:02;20.00;;;17.80;;
27293;SDS011;14785;52.556;13.430;2023-12-20T03:37:28;26.83;;;24.47;;
27293;SDS011;14785;52.556;13.430;2023-12-20T03:39:53;31.67;;;29.40;;
27293;SDS011;14785;52.556;13.430;2023-12-20T03:42:19;35.73;;;32.93;;
27293;SDS011;14785;52.556;13.430;2023-12-20T03:44:44;42.87;;;39.53;;
27293;SDS011;14785;52.556;13.430;2023-12-20T03:47:09;35.87;;;32.63;;
27293;SDS011;14785;52.556;13.430;2023-12-20T03:49:35;37.43;;;34.57;;
27293;SDS011;14785;52.556;13.430;2023-12-20T03:52:02;33.88;;;30.98;;
27293;SDS011;14785;52.556;13.430;2023-12-20T03:54:28;32.10;;;29.17;;
27293;SDS011;14785;52.556;13.430;2023-12-20T03:56:53;35.97;;;33.17;;
27293;SDS011;14785;52.556;13.430;2023-12-20T03:59:18;31.40;;;28.50;;
27293;SDS011;14785;52.556;13.430;2023-12-20T04:01:44;25.77;;;23.50;;
27293;SDS011;14785;52.556;13.430;2023-12-20T04:04:10;22.30;;;20.03;;
27293;SDS011;14785;52.556;13.430;2023-12-20T04:06:35;26.60;;;24.60;;
27293;SDS011;14785;52.556;13.430;2023-12-20T04:09:01;27.70;;;25.03;;
27293;SDS011;14785;52.556;13.430;2023-12-20T04:11:26;29.87;;;27.17;;
27293;SDS011;14785;52.556;13.430;2023-12-20T04:13:52;26.00;;;21.57;;
27293;SDS011;14785;52.556;13.430;2023-12-20T04:16:17;21.20;;;19.07;;
27293;SDS011;14785;52.556;13.430;2023-12-20T04:18:42;28.17;;;25.47;;
27293;SDS011;14785;52.556;13.430;2023-12-20T04:21:08;36.17;;;33.33;;
27293;SDS011;14785;52.556;13.430;2023-12-20T04:23:33;48.33;;;44.57;;
27293;SDS011;14785;52.556;13.430;2023-12-20T04:25:59;37.33;;;33.93;;
27293;SDS011;14785;52.556;13.430;2023-12-20T04:28:24;19.00;;;16.43;;
27293;SDS011;14785;52.556;13.430;2023-12-20T04:30:50;53.03;;;49.15;;
27293;SDS011;14785;52.556;13.430;2023-12-20T04:33:15;43.37;;;39.93;;
27293;SDS011;14785;52.556;13.430;2023-12-20T04:35:41;37.67;;;34.43;;
27293;SDS011;14785;52.556;13.430;2023-12-20T04:38:07;33.45;;;29.98;;
27293;SDS011;14785;52.556;13.430;2023-12-20T04:40:33;35.22;;;31.83;;
27293;SDS011;14785;52.556;13.430;2023-12-20T04:42:59;36.87;;;33.90;;
27293;SDS011;14785;52.556;13.430;2023-12-20T04:45:24;35.77;;;33.10;;
27293;SDS011;14785;52.556;13.430;2023-12-20T04:47:50;33.20;;;30.33;;
27293;SDS011;14785;52.556;13.430;2023-12-20T04:52:41;45.55;;;41.65;;
27293;SDS011;14785;52.556;13.430;2023-12-20T04:55:07;37.10;;;34.47;;
27293;SDS011;14785;52.556;13.430;2023-12-20T04:57:33;38.85;;;35.45;;
27293;SDS011;14785;52.556;13.430;2023-12-20T04:59:59;36.42;;;33.25;;
27293;SDS011;14785;52.556;13.430;2023-12-20T05:02:24;38.50;;;35.30;;
27293;SDS011;14785;52.556;13.430;2023-12-20T05:04:50;38.23;;;34.67;;
27293;SDS011;14785;52.556;13.430;2023-12-20T05:07:15;41.40;;;38.20;;
27293;SDS011;14785;52.556;13.430;2023-12-20T05:09:41;71.57;;;66.67;;
27293;SDS011;14785;52.556;13.430;2023-12-20T05:12:06;39.73;;;36.07;;
27293;SDS011;14785;52.556;13.430;2023-12-20T05:14:32;34.83;;;31.98;;
27293;SDS011;14785;52.556;13.430;2023-12-20T05:16:57;46.70;;;42.83;;
27293;SDS011;14785;52.556;13.430;2023-12-20T05:19:23;62.42;;;57.35;;
27293;SDS011;14785;52.556;13.430;2023-12-20T05:21:49;40.17;;;36.43;;
27293;SDS011;14785;52.556;13.430;2023-12-20T05:24:14;45.20;;;41.73;;
27293;SDS011;14785;52.556;13.430;2023-12-20T05:26:40;46.23;;;42.57;;
27293;SDS011;14785;52.556;13.430;2023-12-20T05:29:05;69.73;;;64.93;;
27293;SDS011;14785;52.556;13.430;2023-12-20T05:31:31;85.83;;;79.63;;
27293;SDS011;14785;52.556;13.430;2023-12-20T05:33:56;99.53;;;92.57;;
27293;SDS011;14785;52.556;13.430;2023-12-20T05:36:22;63.63;;;58.67;;
27293;SDS011;14785;52.556;13.430;2023-12-20T05:38:47;59.93;;;55.13;;
27293;SDS011;14785;52.556;13.430;2023-12-20T05:41:13;58.83;;;54.87;;
27293;SDS011;14785;52.556;13.430;2023-12-20T05:43:38;45.88;;;42.10;;
27293;SDS011;14785;52.556;13.430;2023-12-20T05:46:04;97.20;;;90.00;;
27293;SDS011;14785;52.556;13.430;2023-12-20T05:48:30;98.43;;;92.20;;
27293;SDS011;14785;52.556;13.430;2023-12-20T05:50:55;70.67;;;65.23;;
27293;SDS011;14785;52.556;13.430;2023-12-20T05:53:20;56.10;;;51.03;;
27293;SDS011;14785;52.556;13.430;2023-12-20T05:55:46;57.13;;;52.73;;
27293;SDS011;14785;52.556;13.430;2023-12-20T05:58:11;51.60;;;47.50;;
27293;SDS011;14785;52.556;13.430;2023-12-20T06:00:36;57.90;;;53.20;;
27293;SDS011;14785;52.556;13.430;2023-12-20T06:03:02;51.87;;;48.00;;
27293;SDS011;14785;52.556;13.430;2023-12-20T06:05:29;57.58;;;53.50;;
27293;SDS011;14785;52.556;13.430;2023-12-20T06:07:55;52.60;;;48.30;;
27293;SDS011;14785;52.556;13.430;2023-12-20T06:10:22;49.78;;;45.65;;
27293;SDS011;14785;52.556;13.430;2023-12-20T06:12:48;95.03;;;88.23;;
27293;SDS011;14785;52.556;13.430;2023-12-20T06:15:15;84.22;;;78.38;;
27293;SDS011;14785;52.556;13.430;2023-12-20T06:17:40;116.50;;;109.00;;
27293;SDS011;14785;52.556;13.430;2023-12-20T06:20:06;109.60;;;102.80;;
27293;SDS011;14785;52.556;13.430;2023-12-20T06:22:33;109.03;;;102.40;;
27293;SDS011;14785;52.556;13.430;2023-12-20T06:24:59;129.20;;;121.00;;
27293;SDS011;14785;52.556;13.430;2023-12-20T06:27:25;128.27;;;120.17;;
27293;SDS011;14785;52.556;13.430;2023-12-20T06:29:50;140.47;;;132.00;;
27293;SDS011;14785;52.556;13.430;2023-12-20T06:32:15;128.37;;;120.17;;
27293;SDS011;14785;52.556;13.430;2023-12-20T06:34:41;111.97;;;103.73;;
27293;SDS011;14785;52.556;13.430;2023-12-20T06:37:06;113.67;;;106.30;;
27293;SDS011;14785;52.556;13.430;2023-12-20T06:39:31;101.80;;;95.23;;
27293;SDS011;14785;52.556;13.430;2023-12-20T06:41:59;81.07;;;75.40;;
27293;SDS011;14785;52.556;13.430;2023-12-20T06:44:24;77.00;;;71.30;;
27293;SDS011;14785;52.556;13.430;2023-12-20T06:46:50;83.97;;;78.00;;
27293;SDS011;14785;52.556;13.430;2023-12-20T06:49:15;71.77;;;67.00;;
27293;SDS011;14785;52.556;13.430;2023-12-20T06:51:40;90.63;;;84.30;;
27293;SDS011;14785;52.556;13.430;2023-12-20T06:54:06;70.33;;;65.10;;
27293;SDS011;14785;52.556;13.430;2023-12-20T06:56:32;59.67;;;55.63;;
27293;SDS011;14785;52.556;13.430;2023-12-20T06:58:57;57.67;;;53.30;;
27293;SDS011;14785;52.556;13.430;2023-12-20T07:01:22;62.33;;;57.80;;
27293;SDS011;14785;52.556;13.430;2023-12-20T07:06:14;79.57;;;74.30;;
27293;SDS011;14785;52.556;13.430;2023-12-20T07:08:41;64.30;;;59.10;;
27293;SDS011;14785;52.556;13.430;2023-12-20T07:11:07;75.53;;;70.13;;
27293;SDS011;14785;52.556;13.430;2023-12-20T07:13:32;68.33;;;63.53;;
27293;SDS011;14785;52.556;13.430;2023-12-20T07:15:57;58.30;;;54.20;;
27293;SDS011;14785;52.556;13.430;2023-12-20T07:18:23;53.67;;;48.50;;
27293;SDS011;14785;52.556;13.430;2023-12-20T07:20:48;37.72;;;34.13;;
27293;SDS011;14785;52.556;13.430;2023-12-20T07:23:14;39.57;;;35.57;;
27293;SDS011;14785;52.556;13.430;2023-12-20T07:25:39;44.70;;;40.90;;
27293;SDS011;14785;52.556;13.430;2023-12-20T07:28:05;58.27;;;53.17;;
27293;SDS011;14785;52.556;13.430;2023-12-20T07:30:30;97.07;;;90.20;;
27293;SDS011;14785;52.556;13.430;2023-12-20T07:32:56;126.60;;;118.87;;
27293;SDS011;14785;52.556;13.430;2023-12-20T07:35:23;129.20;;;120.93;;
27293;SDS011;14785;52.556;13.430;2023-12-20T07:37:48;99.93;;;93.40;;
27293;SDS011;14785;52.556;13.430;2023-12-20T07:40:14;73.27;;;67.70;;
27293;SDS011;14785;52.556;13.430;2023-12-20T07:42:42;70.60;;;65.28;;
27293;SDS011;14785;52.556;13.430;2023-12-20T07:45:07;70.67;;;64.97;;
27293;SDS011;14785;52.556;13.430;2023-12-20T07:47:34;67.65;;;62.67;;
27293;SDS011;14785;52.556;13.430;2023-12-20T07:49:59;66.93;;;62.53;;
27293;SDS011;14785;52.556;13.430;2023-12-20T07:52:24;77.97;;;72.47;;
27293;SDS011;14785;52.556;13.430;2023-12-20T07:54:51;66.03;;;60.88;;
27293;SDS011;14785;52.556;13.430;2023-12-20T07:57:16;61.40;;;56.60;;
27293;SDS011;14785;52.556;13.430;2023-12-20T07:59:42;32.90;;;29.53;;
27293;SDS011;14785;52.556;13.430;2023-12-20T08:02:09;30.63;;;22.92;;
27293;SDS011;14785;52.556;13.430;2023-12-20T08:04:34;43.77;;;40.10;;
27293;SDS011;14785;52.556;13.430;2023-12-20T08:07:00;28.83;;;25.87;;
27293;SDS011;14785;52.556;13.430;2023-12-20T08:09:25;45.07;;;41.47;;
27293;SDS011;14785;52.556;13.430;2023-12-20T08:11:51;63.23;;;58.37;;
27293;SDS011;14785;52.556;13.430;2023-12-20T08:14:16;51.97;;;48.07;;
27293;SDS011;14785;52.556;13.430;2023-12-20T08:16:41;61.80;;;56.97;;
27293;SDS011;14785;52.556;13.430;2023-12-20T08:19:07;52.80;;;48.37;;
27293;SDS011;14785;52.556;13.430;2023-12-20T08:21:32;70.00;;;64.97;;
27293;SDS011;14785;52.556;13.430;2023-12-20T08:23:58;70.20;;;64.73;;
27293;SDS011;14785;52.556;13.430;2023-12-20T08:26:25;89.88;;;84.60;;
27293;SDS011;14785;52.556;13.430;2023-12-20T08:28:51;103.65;;;96.80;;
27293;SDS011;14785;52.556;13.430;2023-12-20T08:31:17;54.13;;;49.57;;
27293;SDS011;14785;52.556;13.430;2023-12-20T08:33:43;79.38;;;73.32;;
27293;SDS011;14785;52.556;13.430;2023-12-20T08:36:10;42.63;;;38.70;;
27293;SDS011;14785;52.556;13.430;2023-12-20T08:38:36;75.32;;;69.90;;
27293;SDS011;14785;52.556;13.430;2023-12-20T08:41:01;104.00;;;96.67;;
27293;SDS011;14785;52.556;13.430;2023-12-20T08:43:30;102.30;;;95.75;;
27293;SDS011;14785;52.556;13.430;2023-12-20T08:45:56;85.00;;;79.18;;
27293;SDS011;14785;52.556;13.430;2023-12-20T08:48:21;72.67;;;67.27;;
27293;SDS011;14785;52.556;13.430;2023-12-20T08:50:46;67.80;;;62.53;;
27293;SDS011;14785;52.556;13.430;2023-12-20T08:53:13;90.75;;;84.95;;
27293;SDS011;14785;52.556;13.430;2023-12-20T08:55:40;90.15;;;83.50;;
27293;SDS011;14785;52.556;13.430;2023-12-20T08:58:06;64.77;;;59.67;;
27293;SDS011;14785;52.556;13.430;2023-12-20T09:00:33;58.92;;;54.38;;
27293;SDS011;14785;52.556;13.430;2023-12-20T09:02:58;44.90;;;41.50;;
27293;SDS011;14785;52.556;13.430;2023-12-20T09:05:24;29.50;;;26.27;;
27293;SDS011;14785;52.556;13.430;2023-12-20T09:07:50;37.05;;;33.67;;
27293;SDS011;14785;52.556;13.430;2023-12-20T09:10:16;34.10;;;30.97;;
27293;SDS011;14785;52.556;13.430;2023-12-20T09:12:46;73.28;;;68.05;;
27293;SDS011;14785;52.556;13.430;2023-12-20T09:15:12;75.53;;;69.78;;
27293;SDS011;14785;52.556;13.430;2023-12-20T09:17:38;47.80;;;43.87;;
27293;SDS011;14785;52.556;13.430;2023-12-20T09:20:04;38.22;;;34.28;;
27293;SDS011;14785;52.556;13.430;2023-12-20T09:22:32;36.17;;;33.00;;
27293;SDS011;14785;52.556;13.430;2023-12-20T09:24:57;29.63;;;26.57;;
27293;SDS011;14785;52.556;13.430;2023-12-20T09:27:23;73.05;;;67.50;;
27293;SDS011;14785;52.556;13.430;2023-12-20T09:29:48;87.43;;;81.57;;
27293;SDS011;14785;52.556;13.430;2023-12-20T09:32:14;119.03;;;111.45;;
27293;SDS011;14785;52.556;13.430;2023-12-20T09:34:40;118.60;;;110.97;;
27293;SDS011;14785;52.556;13.430;2023-12-20T09:37:06;27.67;;;23.02;;
27293;SDS011;14785;52.556;13.430;2023-12-20T09:39:32;36.00;;;25.38;;
27293;SDS011;14785;52.556;13.430;2023-12-20T09:42:02;52.90;;;48.05;;
27293;SDS011;14785;52.556;13.430;2023-12-20T09:44:29;60.72;;;56.20;;
27293;SDS011;14785;52.556;13.430;2023-12-20T09:46:56;96.63;;;89.75;;
27293;SDS011;14785;52.556;13.430;2023-12-20T09:49:22;64.28;;;59.25;;
27293;SDS011;14785;52.556;13.430;2023-12-20T09:51:49;33.47;;;29.92;;
27293;SDS011;14785;52.556;13.430;2023-12-20T09:54:19;38.95;;;35.92;;
27293;SDS011;14785;52.556;13.430;2023-12-20T09:56:46;84.03;;;77.97;;
27293;SDS011;14785;52.556;13.430;2023-12-20T09:59:13;59.97;;;55.20;;
27293;SDS011;14785;52.556;13.430;2023-12-20T10:01:40;31.05;;;27.80;;
27293;SDS011;14785;52.556;13.430;2023-12-20T10:08:59;32.40;;;29.23;;
27293;SDS011;14785;52.556;13.430;2023-12-20T10:11:25;29.00;;;20.90;;
27293;SDS011;14785;52.556;13.430;2023-12-20T10:13:50;37.23;;;32.83;;
27293;SDS011;14785;52.556;13.430;2023-12-20T10:16:15;27.43;;;19.63;;
27293;SDS011;14785;52.556;13.430;2023-12-20T10:18:41;46.73;;;42.87;;
27293;SDS011;14785;52.556;13.430;2023-12-20T10:21:06;77.03;;;71.33;;
27293;SDS011;14785;52.556;13.430;2023-12-20T10:23:35;30.25;;;26.75;;
27293;SDS011;14785;52.556;13.430;2023-12-20T10:26:00;33.78;;;29.38;;
27293;SDS011;14785;52.556;13.430;2023-12-20T10:28:26;39.87;;;36.33;;
27293;SDS011;14785;52.556;13.430;2023-12-20T10:30:54;35.50;;;29.95;;
27293;SDS011;14785;52.556;13.430;2023-12-20T10:33:26;33.28;;;29.92;;
27293;SDS011;14785;52.556;13.430;2023-12-20T10:35:53;37.33;;;21.02;;
27293;SDS011;14785;52.556;13.430;2023-12-20T10:38:20;25.30;;;22.50;;
27293;SDS011;14785;52.556;13.430;2023-12-20T10:40:46;38.43;;;34.57;;
27293;SDS011;14785;52.556;13.430;2023-12-20T10:43:11;43.55;;;39.47;;
27293;SDS011;14785;52.556;13.430;2023-12-20T10:45:38;25.75;;;18.92;;
27293;SDS011;14785;52.556;13.430;2023-12-20T10:48:04;27.93;;;25.10;;
27293;SDS011;14785;52.556;13.430;2023-12-20T10:50:30;23.75;;;20.80;;
27293;SDS011;14785;52.556;13.430;2023-12-20T10:52:56;34.13;;;26.92;;
27293;SDS011;14785;52.556;13.430;2023-12-20T10:55:23;42.83;;;38.60;;
27293;SDS011;14785;52.556;13.430;2023-12-20T10:57:54;54.55;;;49.92;;
27293;SDS011;14785;52.556;13.430;2023-12-20T11:00:26;32.70;;;24.47;;
27293;SDS011;14785;52.556;13.430;2023-12-20T11:02:51;22.65;;;19.73;;
27293;SDS011;14785;52.556;13.430;2023-12-20T11:07:50;23.42;;;20.92;;
27293;SDS011;14785;52.556;13.430;2023-12-20T11:10:40;35.03;;;30.83;;
27293;SDS011;14785;52.556;13.430;2023-12-20T11:13:17;32.35;;;29.30;;
27293;SDS011;14785;52.556;13.430;2023-12-20T11:15:47;24.55;;;21.40;;
27293;SDS011;14785;52.556;13.430;2023-12-20T11:18:13;25.05;;;16.42;;
27293;SDS011;14785;52.556;13.430;2023-12-20T11:20:40;32.08;;;28.92;;
27293;SDS011;14785;52.556;13.430;2023-12-20T11:23:07;54.28;;;50.00;;
27293;SDS011;14785;52.556;13.430;2023-12-20T11:25:52;35.53;;;31.60;;
27293;SDS011;14785;52.556;13.430;2023-12-20T11:28:22;49.05;;;44.80;;
27293;SDS011;14785;52.556;13.430;2023-12-20T11:33:21;24.33;;;13.48;;
27293;SDS011;14785;52.556;13.430;2023-12-20T11:35:48;20.85;;;13.38;;
27293;SDS011;14785;52.556;13.430;2023-12-20T11:38:14;32.30;;;29.53;;
27293;SDS011;14785;52.556;13.430;2023-12-20T11:40:40;29.33;;;26.30;;
27293;SDS011;14785;52.556;13.430;2023-12-20T11:43:07;25.45;;;22.70;;
27293;SDS011;14785;52.556;13.430;2023-12-20T11:45:32;19.67;;;15.10;;
27293;SDS011;14785;52.556;13.430;2023-12-20T11:48:00;22.27;;;16.35;;
27293;SDS011;14785;52.556;13.430;2023-12-20T11:50:27;31.33;;;20.80;;
27293;SDS011;14785;52.556;13.430;2023-12-20T11:52:53;24.23;;;19.08;;
27293;SDS011;14785;52.556;13.430;2023-12-20T11:55:20;23.50;;;14.55;;
27293;SDS011;14785;52.556;13.430;2023-12-20T11:57:46;19.63;;;16.10;;
27293;SDS011;14785;52.556;13.430;2023-12-20T12:00:12;28.27;;;25.30;;
27293;SDS011;14785;52.556;13.430;2023-12-20T12:02:38;53.67;;;49.80;;
27293;SDS011;14785;52.556;13.430;2023-12-20T12:05:04;22.77;;;18.47;;
27293;SDS011;14785;52.556;13.430;2023-12-20T12:07:30;36.90;;;33.15;;
27293;SDS011;14785;52.556;13.430;2023-12-20T12:09:56;39.05;;;35.83;;
27293;SDS011;14785;52.556;13.430;2023-12-20T12:12:22;25.38;;;22.70;;
27293;SDS011;14785;52.556;13.430;2023-12-20T12:14:48;29.40;;;23.30;;
27293;SDS011;14785;52.556;13.430;2023-12-20T12:17:14;29.13;;;26.20;;
27293;SDS011;14785;52.556;13.430;2023-12-20T12:19:40;38.78;;;35.28;;
27293;SDS011;14785;52.556;13.430;2023-12-20T12:22:15;24.55;;;22.08;;
27293;SDS011;14785;52.556;13.430;2023-12-20T12:24:45;23.08;;;19.85;;
27293;SDS011;14785;52.556;13.430;2023-12-20T12:27:15;26.85;;;24.02;;
27293;SDS011;14785;52.556;13.430;2023-12-20T12:29:41;40.72;;;37.58;;
27293;SDS011;14785;52.556;13.430;2023-12-20T12:32:25;18.98;;;16.65;;
27293;SDS011;14785;52.556;13.430;2023-12-20T12:34:50;21.77;;;15.90;;
27293;SDS011;14785;52.556;13.430;2023-12-20T12:37:16;34.33;;;28.83;;
27293;SDS011;14785;52.556;13.430;2023-12-20T12:39:41;26.63;;;17.03;;
27293;SDS011;14785;52.556;13.430;2023-12-20T12:42:07;30.17;;;18.00;;
27293;SDS011;14785;52.556;13.430;2023-12-20T12:44:32;45.00;;;40.97;;
27293;SDS011;14785;52.556;13.430;2023-12-20T12:46:57;25.40;;;19.30;;
27293;SDS011;14785;52.556;13.430;2023-12-20T12:49:23;87.30;;;81.47;;
27293;SDS011;14785;52.556;13.430;2023-12-20T12:51:48;28.47;;;20.23;;
27293;SDS011;14785;52.556;13.430;2023-12-20T12:54:14;44.67;;;40.17;;
27293;SDS011;14785;52.556;13.430;2023-12-20T12:56:41;111.75;;;105.03;;
27293;SDS011;14785;52.556;13.430;2023-12-20T12:59:08;23.60;;;21.17;;
27293;SDS011;14785;52.556;13.430;2023-12-20T13:01:33;33.47;;;30.27;;
27293;SDS011;14785;52.556;13.430;2023-12-20T13:03:59;22.87;;;19.33;;
27293;SDS011;14785;52.556;13.430;2023-12-20T13:06:26;27.30;;;24.38;;
27293;SDS011;14785;52.556;13.430;2023-12-20T13:08:52;34.13;;;30.57;;
27293;SDS011;14785;52.556;13.430;2023-12-20T13:11:17;39.67;;;36.37;;
27293;SDS011;14785;52.556;13.430;2023-12-20T13:13:42;31.03;;;23.07;;
27293;SDS011;14785;52.556;13.430;2023-12-20T13:16:08;29.10;;;25.07;;
27293;SDS011;14785;52.556;13.430;2023-12-20T13:18:33;96.43;;;90.13;;
27293;SDS011;14785;52.556;13.430;2023-12-20T13:20:59;66.97;;;62.27;;
27293;SDS011;14785;52.556;13.430;2023-12-20T13:23:24;32.30;;;29.33;;
27293;SDS011;14785;52.556;13.430;2023-12-20T13:25:49;45.17;;;41.80;;
27293;SDS011;14785;52.556;13.430;2023-12-20T13:28:15;59.33;;;55.27;;
27293;SDS011;14785;52.556;13.430;2023-12-20T13:30:40;40.93;;;37.97;;
27293;SDS011;14785;52.556;13.430;2023-12-20T13:33:06;83.03;;;78.20;;
27293;SDS011;14785;52.556;13.430;2023-12-20T13:35:32;43.10;;;40.33;;
27293;SDS011;14785;52.556;13.430;2023-12-20T13:37:58;83.70;;;79.05;;
27293;SDS011;14785;52.556;13.430;2023-12-20T13:40:24;47.15;;;44.13;;
27293;SDS011;14785;52.556;13.430;2023-12-20T13:42:49;48.70;;;45.92;;
27293;SDS011;14785;52.556;13.430;2023-12-20T13:45:15;68.97;;;65.13;;
27293;SDS011;14785;52.556;13.430;2023-12-20T13:47:41;65.00;;;61.30;;
27293;SDS011;14785;52.556;13.430;2023-12-20T13:50:06;80.53;;;76.23;;
27293;SDS011;14785;52.556;13.430;2023-12-20T13:52:32;74.55;;;70.43;;
27293;SDS011;14785;52.556;13.430;2023-12-20T13:54:57;86.83;;;82.10;;
27293;SDS011;14785;52.556;13.430;2023-12-20T13:57:23;75.47;;;71.20;;
27293;SDS011;14785;52.556;13.430;2023-12-20T13:59:48;60.30;;;56.83;;
27293;SDS011;14785;52.556;13.430;2023-12-20T14:02:13;73.07;;;69.13;;
27293;SDS011;14785;52.556;13.430;2023-12-20T14:04:40;93.43;;;88.45;;
27293;SDS011;14785;52.556;13.430;2023-12-20T14:07:05;90.03;;;85.22;;
27293;SDS011;14785;52.556;13.430;2023-12-20T14:09:32;67.53;;;63.78;;
27293;SDS011;14785;52.556;13.430;2023-12-20T14:11:58;93.72;;;88.68;;
27293;SDS011;14785;52.556;13.430;2023-12-20T14:14:24;61.77;;;58.30;;
27293;SDS011;14785;52.556;13.430;2023-12-20T14:16:49;100.83;;;95.13;;